sensor_id;sensor_type;location;lat;lon;timestamp;P1;durP1;ratioP1;P2;durP2;ratioP2
35394;SDS011;21500;45.308;9.488;2023-05-02T00:10:27;13.75;;;12.23;;
35394;SDS011;21500;45.308;9.488;2023-05-02T00:27:41;16.65;;;14.85;;
35394;SDS011;21500;45.308;9.488;2023-05-02T00:44:28;16.27;;;14.07;;
35394;SDS011;21500;45.308;9.488;2023-05-02T07:10:55;9.45;;;8.43;;
35394;SDS011;21500;45.308;9.488;2023-05-02T07:13:23;10.45;;;7.85;;
35394;SDS011;21500;45.308;9.488;2023-05-02T07:15:52;8.45;;;7.35;;
35394;SDS011;21500;45.308;9.488;2023-05-02T07:18:18;8.20;;;7.40;;
35394;SDS011;21500;45.308;9.488;2023-05-02T07:20:45;8.77;;;6.93;;
35394;SDS011;21500;45.308;9.488;2023-05-02T07:23:11;6.32;;;5.72;;
35394;SDS011;21500;45.308;9.488;2023-05-02T07:25:39;6.82;;;6.10;;
35394;SDS011;21500;45.308;9.488;2023-05-02T07:28:12;5.65;;;5.10;;
35394;SDS011;21500;45.308;9.488;2023-05-02T07:30:59;6.47;;;5.72;;
35394;SDS011;21500;45.308;9.488;2023-05-02T07:33:36;5.25;;;4.75;;
35394;SDS011;21500;45.308;9.488;2023-05-02T07:36:03;5.32;;;4.80;;
35394;SDS011;21500;45.308;9.488;2023-05-02T07:38:29;5.13;;;4.38;;
35394;SDS011;21500;45.308;9.488;2023-05-02T07:40:58;5.40;;;3.83;;
35394;SDS011;21500;45.308;9.488;2023-05-02T07:43:26;5.75;;;4.20;;
35394;SDS011;21500;45.308;9.488;2023-05-02T07:45:53;3.70;;;3.40;;
35394;SDS011;21500;45.308;9.488;2023-05-02T07:48:23;3.17;;;2.88;;
35394;SDS011;21500;45.308;9.488;2023-05-02T07:50:49;4.60;;;3.40;;
35394;SDS011;21500;45.308;9.488;2023-05-02T07:53:15;3.53;;;3.17;;
35394;SDS011;21500;45.308;9.488;2023-05-02T07:56:00;3.95;;;3.58;;
35394;SDS011;21500;45.308;9.488;2023-05-02T07:58:27;3.45;;;3.15;;
35394;SDS011;21500;45.308;9.488;2023-05-02T08:00:53;3.65;;;3.35;;
35394;SDS011;21500;45.308;9.488;2023-05-02T08:03:23;3.25;;;2.95;;
35394;SDS011;21500;45.308;9.488;2023-05-02T08:06:20;3.47;;;3.17;;
35394;SDS011;21500;45.308;9.488;2023-05-02T08:08:46;3.95;;;2.58;;
35394;SDS011;21500;45.308;9.488;2023-05-02T08:11:37;2.80;;;2.50;;
35394;SDS011;21500;45.308;9.488;2023-05-02T08:14:04;3.70;;;2.70;;
35394;SDS011;21500;45.308;9.488;2023-05-02T08:16:30;5.28;;;3.25;;
35394;SDS011;21500;45.308;9.488;2023-05-02T08:18:58;4.43;;;3.60;;
35394;SDS011;21500;45.308;9.488;2023-05-02T08:21:30;3.58;;;3.20;;
35394;SDS011;21500;45.308;9.488;2023-05-02T08:23:58;3.40;;;2.80;;
35394;SDS011;21500;45.308;9.488;2023-05-02T08:26:39;3.60;;;3.17;;
35394;SDS011;21500;45.308;9.488;2023-05-02T08:29:14;5.15;;;4.00;;
35394;SDS011;21500;45.308;9.488;2023-05-02T08:31:40;5.03;;;4.00;;
35394;SDS011;21500;45.308;9.488;2023-05-02T08:34:07;5.05;;;3.40;;
35394;SDS011;21500;45.308;9.488;2023-05-02T08:36:33;4.47;;;4.07;;
35394;SDS011;21500;45.308;9.488;2023-05-02T08:38:59;4.55;;;4.00;;
35394;SDS011;21500;45.308;9.488;2023-05-02T08:41:26;4.25;;;3.85;;
35394;SDS011;21500;45.308;9.488;2023-05-02T08:43:55;4.13;;;3.72;;
35394;SDS011;21500;45.308;9.488;2023-05-02T08:46:22;4.57;;;3.63;;
35394;SDS011;21500;45.308;9.488;2023-05-02T08:48:48;4.97;;;4.13;;
35394;SDS011;21500;45.308;9.488;2023-05-02T08:51:15;5.03;;;4.40;;
35394;SDS011;21500;45.308;9.488;2023-05-02T08:53:43;4.68;;;4.28;;
35394;SDS011;21500;45.308;9.488;2023-05-02T08:56:10;6.50;;;4.88;;
35394;SDS011;21500;45.308;9.488;2023-05-02T08:58:37;5.28;;;4.20;;
35394;SDS011;21500;45.308;9.488;2023-05-02T09:01:22;5.80;;;4.75;;
35394;SDS011;21500;45.308;9.488;2023-05-02T09:03:52;5.70;;;5.15;;
35394;SDS011;21500;45.308;9.488;2023-05-02T09:06:20;6.72;;;4.38;;
35394;SDS011;21500;45.308;9.488;2023-05-02T09:08:47;5.85;;;4.88;;
35394;SDS011;21500;45.308;9.488;2023-05-02T09:11:15;7.13;;;5.50;;
35394;SDS011;21500;45.308;9.488;2023-05-02T09:13:42;5.03;;;4.47;;
35394;SDS011;21500;45.308;9.488;2023-05-02T09:16:21;5.47;;;4.63;;
35394;SDS011;21500;45.308;9.488;2023-05-02T09:18:53;6.40;;;4.60;;
35394;SDS011;21500;45.308;9.488;2023-05-02T09:21:43;6.20;;;5.60;;
35394;SDS011;21500;45.308;9.488;2023-05-02T09:24:16;7.50;;;4.68;;
35394;SDS011;21500;45.308;9.488;2023-05-02T09:27:00;4.90;;;4.45;;
35394;SDS011;21500;45.308;9.488;2023-05-02T09:29:28;5.43;;;4.30;;
35394;SDS011;21500;45.308;9.488;2023-05-02T09:32:02;5.35;;;4.05;;
35394;SDS011;21500;45.308;9.488;2023-05-02T09:34:30;4.47;;;3.43;;
35394;SDS011;21500;45.308;9.488;2023-05-02T09:36:56;3.72;;;3.40;;
35394;SDS011;21500;45.308;9.488;2023-05-02T09:39:24;4.07;;;3.50;;
35394;SDS011;21500;45.308;9.488;2023-05-02T09:41:55;4.13;;;3.72;;
35394;SDS011;21500;45.308;9.488;2023-05-02T09:44:23;5.68;;;3.33;;
35394;SDS011;21500;45.308;9.488;2023-05-02T09:46:54;4.70;;;3.85;;
35394;SDS011;21500;45.308;9.488;2023-05-02T09:49:39;4.85;;;3.78;;
35394;SDS011;21500;45.308;9.488;2023-05-02T09:52:13;4.07;;;3.67;;
35394;SDS011;21500;45.308;9.488;2023-05-02T09:54:47;4.70;;;3.17;;
35394;SDS011;21500;45.308;9.488;2023-05-02T09:57:24;5.22;;;3.88;;
35394;SDS011;21500;45.308;9.488;2023-05-02T10:00:05;3.15;;;2.85;;
35394;SDS011;21500;45.308;9.488;2023-05-02T10:02:53;3.40;;;2.88;;
35394;SDS011;21500;45.308;9.488;2023-05-02T10:05:20;5.15;;;2.72;;
35394;SDS011;21500;45.308;9.488;2023-05-02T10:07:46;3.13;;;2.70;;
35394;SDS011;21500;45.308;9.488;2023-05-02T10:10:13;2.72;;;2.22;;
35394;SDS011;21500;45.308;9.488;2023-05-02T10:12:45;4.43;;;3.15;;
35394;SDS011;21500;45.308;9.488;2023-05-02T10:15:16;3.40;;;3.10;;
35394;SDS011;21500;45.308;9.488;2023-05-02T10:17:47;2.80;;;2.60;;
35394;SDS011;21500;45.308;9.488;2023-05-02T10:20:18;4.10;;;2.78;;
35394;SDS011;21500;45.308;9.488;2023-05-02T10:22:50;2.80;;;1.67;;
35394;SDS011;21500;45.308;9.488;2023-05-02T10:25:17;2.70;;;2.47;;
35394;SDS011;21500;45.308;9.488;2023-05-02T10:27:43;3.55;;;2.58;;
35394;SDS011;21500;45.308;9.488;2023-05-02T10:30:11;3.25;;;1.92;;
35394;SDS011;21500;45.308;9.488;2023-05-02T10:32:38;1.73;;;1.63;;
35394;SDS011;21500;45.308;9.488;2023-05-02T10:35:05;3.03;;;1.90;;
35394;SDS011;21500;45.308;9.488;2023-05-02T10:37:34;2.58;;;1.92;;
35394;SDS011;21500;45.308;9.488;2023-05-02T10:40:02;1.88;;;1.58;;
35394;SDS011;21500;45.308;9.488;2023-05-02T10:42:30;1.88;;;1.67;;
35394;SDS011;21500;45.308;9.488;2023-05-02T10:45:02;2.22;;;1.77;;
35394;SDS011;21500;45.308;9.488;2023-05-02T10:47:29;3.55;;;2.08;;
35394;SDS011;21500;45.308;9.488;2023-05-02T10:50:00;2.63;;;2.42;;
35394;SDS011;21500;45.308;9.488;2023-05-02T10:52:36;5.68;;;1.98;;
35394;SDS011;21500;45.308;9.488;2023-05-02T10:55:23;1.65;;;1.55;;
35394;SDS011;21500;45.308;9.488;2023-05-02T11:06:25;2.40;;;1.85;;
35394;SDS011;21500;45.308;9.488;2023-05-02T11:11:47;4.05;;;2.95;;
35394;SDS011;21500;45.308;9.488;2023-05-02T11:20:17;4.05;;;2.03;;
35394;SDS011;21500;45.308;9.488;2023-05-02T11:24:47;2.63;;;1.80;;
35394;SDS011;21500;45.308;9.488;2023-05-02T11:30:03;1.42;;;1.33;;
35394;SDS011;21500;45.308;9.488;2023-05-02T11:35:17;2.58;;;2.00;;
35394;SDS011;21500;45.308;9.488;2023-05-02T11:37:42;3.22;;;2.03;;
35394;SDS011;21500;45.308;9.488;2023-05-02T11:40:18;1.95;;;1.70;;
35394;SDS011;21500;45.308;9.488;2023-05-02T11:42:44;1.88;;;1.60;;
35394;SDS011;21500;45.308;9.488;2023-05-02T11:53:39;1.30;;;1.20;;
35394;SDS011;21500;45.308;9.488;2023-05-02T11:56:05;1.52;;;1.42;;
35394;SDS011;21500;45.308;9.488;2023-05-02T12:09:13;2.13;;;1.95;;
35394;SDS011;21500;45.308;9.488;2023-05-02T12:12:24;2.38;;;1.65;;
35394;SDS011;21500;45.308;9.488;2023-05-02T12:14:50;3.05;;;2.42;;
35394;SDS011;21500;45.308;9.488;2023-05-02T12:17:16;1.95;;;1.67;;
35394;SDS011;21500;45.308;9.488;2023-05-02T16:49:42;3.15;;;2.90;;
35394;SDS011;21500;45.308;9.488;2023-05-02T16:52:33;3.00;;;2.80;;
35394;SDS011;21500;45.308;9.488;2023-05-02T16:55:01;2.40;;;2.20;;
35394;SDS011;21500;45.308;9.488;2023-05-02T16:57:29;3.25;;;2.95;;
35394;SDS011;21500;45.308;9.488;2023-05-02T16:59:55;4.20;;;3.38;;
35394;SDS011;21500;45.308;9.488;2023-05-02T17:02:24;2.85;;;2.65;;
35394;SDS011;21500;45.308;9.488;2023-05-02T17:04:50;2.70;;;2.50;;
35394;SDS011;21500;45.308;9.488;2023-05-02T17:07:16;3.42;;;3.13;;
35394;SDS011;21500;45.308;9.488;2023-05-02T17:09:42;2.63;;;2.42;;
35394;SDS011;21500;45.308;9.488;2023-05-02T17:12:08;2.70;;;2.50;;
35394;SDS011;21500;45.308;9.488;2023-05-02T17:14:35;2.50;;;2.30;;
35394;SDS011;21500;45.308;9.488;2023-05-02T17:17:02;2.72;;;2.53;;
35394;SDS011;21500;45.308;9.488;2023-05-02T17:19:29;2.90;;;2.70;;
35394;SDS011;21500;45.308;9.488;2023-05-02T17:21:56;3.08;;;1.95;;
35394;SDS011;21500;45.308;9.488;2023-05-02T17:24:22;1.98;;;1.88;;
35394;SDS011;21500;45.308;9.488;2023-05-02T17:26:52;2.35;;;2.03;;
35394;SDS011;21500;45.308;9.488;2023-05-02T17:29:18;17.63;;;2.97;;
35394;SDS011;21500;45.308;9.488;2023-05-02T17:31:45;3.47;;;1.95;;
35394;SDS011;21500;45.308;9.488;2023-05-02T17:34:11;1.70;;;1.60;;
35394;SDS011;21500;45.308;9.488;2023-05-02T17:36:37;2.05;;;1.85;;
35394;SDS011;21500;45.308;9.488;2023-05-02T17:39:06;2.17;;;1.55;;
35394;SDS011;21500;45.308;9.488;2023-05-02T17:41:35;1.40;;;1.30;;
35394;SDS011;21500;45.308;9.488;2023-05-02T17:44:01;2.00;;;1.60;;
35394;SDS011;21500;45.308;9.488;2023-05-02T17:46:29;1.58;;;1.40;;
35394;SDS011;21500;45.308;9.488;2023-05-02T17:48:55;1.67;;;1.42;;
35394;SDS011;21500;45.308;9.488;2023-05-02T17:51:22;1.75;;;1.65;;
35394;SDS011;21500;45.308;9.488;2023-05-02T17:53:51;3.17;;;1.40;;
35394;SDS011;21500;45.308;9.488;2023-05-02T17:56:17;1.58;;;1.48;;
35394;SDS011;21500;45.308;9.488;2023-05-02T17:58:43;2.38;;;1.60;;
35394;SDS011;21500;45.308;9.488;2023-05-02T18:01:09;1.90;;;1.67;;
35394;SDS011;21500;45.308;9.488;2023-05-02T18:03:38;1.98;;;1.80;;
35394;SDS011;21500;45.308;9.488;2023-05-02T18:06:06;2.45;;;1.70;;
35394;SDS011;21500;45.308;9.488;2023-05-02T18:26:39;3.47;;;2.40;;
35394;SDS011;21500;45.308;9.488;2023-05-02T18:29:07;2.40;;;2.20;;
35394;SDS011;21500;45.308;9.488;2023-05-02T18:34:34;2.80;;;2.50;;
35394;SDS011;21500;45.308;9.488;2023-05-02T18:37:01;4.93;;;2.22;;
35394;SDS011;21500;45.308;9.488;2023-05-02T18:40:00;2.08;;;1.90;;
35394;SDS011;21500;45.308;9.488;2023-05-02T18:42:27;4.53;;;1.95;;
35394;SDS011;21500;45.308;9.488;2023-05-02T18:44:53;4.88;;;2.03;;
35394;SDS011;21500;45.308;9.488;2023-05-02T18:50:26;3.28;;;2.17;;
35394;SDS011;21500;45.308;9.488;2023-05-02T18:52:52;4.10;;;2.30;;
35394;SDS011;21500;45.308;9.488;2023-05-02T18:55:45;2.95;;;2.17;;
35394;SDS011;21500;45.308;9.488;2023-05-02T19:02:29;1.88;;;1.77;;
35394;SDS011;21500;45.308;9.488;2023-05-02T19:05:07;1.60;;;1.50;;
35394;SDS011;21500;45.308;9.488;2023-05-02T19:10:43;1.90;;;1.80;;
35394;SDS011;21500;45.308;9.488;2023-05-02T20:08:03;5.88;;;4.50;;
35394;SDS011;21500;45.308;9.488;2023-05-02T20:10:36;5.60;;;4.35;;
35394;SDS011;21500;45.308;9.488;2023-05-02T20:13:03;4.97;;;4.57;;
35394;SDS011;21500;45.308;9.488;2023-05-02T20:15:31;5.68;;;4.10;;
35394;SDS011;21500;45.308;9.488;2023-05-02T20:17:57;5.45;;;4.63;;
35394;SDS011;21500;45.308;9.488;2023-05-02T20:20:26;4.95;;;4.55;;
35394;SDS011;21500;45.308;9.488;2023-05-02T20:22:52;4.97;;;4.47;;
35394;SDS011;21500;45.308;9.488;2023-05-02T20:25:23;4.82;;;4.32;;
35394;SDS011;21500;45.308;9.488;2023-05-02T20:27:49;4.75;;;4.25;;
35394;SDS011;21500;45.308;9.488;2023-05-02T20:30:17;5.63;;;4.45;;
35394;SDS011;21500;45.308;9.488;2023-05-02T20:32:43;5.60;;;5.00;;
35394;SDS011;21500;45.308;9.488;2023-05-02T20:35:09;4.80;;;4.40;;
35394;SDS011;21500;45.308;9.488;2023-05-02T20:37:39;5.10;;;4.60;;
35394;SDS011;21500;45.308;9.488;2023-05-02T20:40:06;5.18;;;4.70;;
35394;SDS011;21500;45.308;9.488;2023-05-02T20:42:35;5.78;;;5.18;;
35394;SDS011;21500;45.308;9.488;2023-05-02T20:45:11;4.75;;;4.35;;
35394;SDS011;21500;45.308;9.488;2023-05-02T20:47:38;5.60;;;5.13;;
35394;SDS011;21500;45.308;9.488;2023-05-02T20:50:07;5.78;;;4.97;;
35394;SDS011;21500;45.308;9.488;2023-05-02T20:52:37;4.43;;;4.03;;
35394;SDS011;21500;45.308;9.488;2023-05-02T20:55:06;4.53;;;4.22;;
35394;SDS011;21500;45.308;9.488;2023-05-02T20:57:56;4.20;;;3.70;;
35394;SDS011;21500;45.308;9.488;2023-05-02T21:00:22;5.25;;;4.75;;
35394;SDS011;21500;45.308;9.488;2023-05-02T21:02:51;4.78;;;4.30;;
35394;SDS011;21500;45.308;9.488;2023-05-02T21:05:18;4.05;;;3.67;;
35394;SDS011;21500;45.308;9.488;2023-05-02T21:07:46;3.88;;;3.40;;
35394;SDS011;21500;45.308;9.488;2023-05-02T21:11:11;3.95;;;3.65;;
35394;SDS011;21500;45.308;9.488;2023-05-02T21:13:39;3.83;;;3.53;;
35394;SDS011;21500;45.308;9.488;2023-05-02T21:16:13;3.20;;;2.97;;
35394;SDS011;21500;45.308;9.488;2023-05-02T21:18:45;3.00;;;2.80;;
35394;SDS011;21500;45.308;9.488;2023-05-02T21:21:14;3.00;;;2.80;;
35394;SDS011;21500;45.308;9.488;2023-05-02T21:23:41;4.20;;;2.95;;
35394;SDS011;21500;45.308;9.488;2023-05-02T21:26:08;2.70;;;2.50;;
35394;SDS011;21500;45.308;9.488;2023-05-02T21:28:57;2.97;;;2.67;;
35394;SDS011;21500;45.308;9.488;2023-05-02T21:31:25;3.17;;;2.88;;
35394;SDS011;21500;45.308;9.488;2023-05-02T21:33:54;3.40;;;3.10;;
35394;SDS011;21500;45.308;9.488;2023-05-02T21:37:25;2.90;;;2.70;;
35394;SDS011;21500;45.308;9.488;2023-05-02T21:40:13;3.90;;;2.58;;
35394;SDS011;21500;45.308;9.488;2023-05-02T21:42:39;3.33;;;3.03;;
35394;SDS011;21500;45.308;9.488;2023-05-02T21:45:05;2.72;;;2.53;;
35394;SDS011;21500;45.308;9.488;2023-05-02T21:47:31;3.00;;;2.70;;
35394;SDS011;21500;45.308;9.488;2023-05-02T21:49:58;3.28;;;2.80;;
35394;SDS011;21500;45.308;9.488;2023-05-02T21:52:24;2.90;;;2.70;;
35394;SDS011;21500;45.308;9.488;2023-05-02T21:54:51;2.53;;;2.33;;
35394;SDS011;21500;45.308;9.488;2023-05-02T21:57:21;3.15;;;2.85;;
35394;SDS011;21500;45.308;9.488;2023-05-02T21:59:50;3.90;;;3.42;;
35394;SDS011;21500;45.308;9.488;2023-05-02T22:02:16;3.13;;;2.83;;
35394;SDS011;21500;45.308;9.488;2023-05-02T22:04:42;3.15;;;2.88;;
35394;SDS011;21500;45.308;9.488;2023-05-02T22:07:11;3.53;;;3.00;;
35394;SDS011;21500;45.308;9.488;2023-05-02T22:09:37;2.85;;;2.50;;
35394;SDS011;21500;45.308;9.488;2023-05-02T22:12:04;3.42;;;2.80;;
35394;SDS011;21500;45.308;9.488;2023-05-02T22:14:31;2.80;;;2.60;;
35394;SDS011;21500;45.308;9.488;2023-05-02T22:16:57;3.38;;;2.90;;
35394;SDS011;21500;45.308;9.488;2023-05-02T22:19:26;2.38;;;2.17;;
35394;SDS011;21500;45.308;9.488;2023-05-02T22:21:53;2.85;;;2.63;;
35394;SDS011;21500;45.308;9.488;2023-05-02T22:24:20;2.92;;;2.58;;
35394;SDS011;21500;45.308;9.488;2023-05-02T22:26:48;2.35;;;2.15;;
35394;SDS011;21500;45.308;9.488;2023-05-02T22:29:14;2.97;;;2.70;;
35394;SDS011;21500;45.308;9.488;2023-05-02T22:31:40;3.97;;;3.00;;
35394;SDS011;21500;45.308;9.488;2023-05-02T22:34:06;3.17;;;2.88;;
35394;SDS011;21500;45.308;9.488;2023-05-02T22:36:33;3.30;;;3.00;;
35394;SDS011;21500;45.308;9.488;2023-05-02T22:38:59;3.13;;;2.83;;
35394;SDS011;21500;45.308;9.488;2023-05-02T22:41:25;3.67;;;2.88;;
35394;SDS011;21500;45.308;9.488;2023-05-02T22:43:51;4.28;;;3.17;;
35394;SDS011;21500;45.308;9.488;2023-05-02T22:46:17;3.20;;;2.90;;
35394;SDS011;21500;45.308;9.488;2023-05-02T22:48:43;3.70;;;3.40;;
35394;SDS011;21500;45.308;9.488;2023-05-02T22:51:09;5.28;;;3.50;;
35394;SDS011;21500;45.308;9.488;2023-05-02T22:53:35;4.13;;;3.42;;
35394;SDS011;21500;45.308;9.488;2023-05-02T22:56:00;3.22;;;2.92;;
35394;SDS011;21500;45.308;9.488;2023-05-02T22:58:27;3.20;;;2.90;;
35394;SDS011;21500;45.308;9.488;2023-05-02T23:00:53;3.40;;;3.10;;
35394;SDS011;21500;45.308;9.488;2023-05-02T23:03:18;3.92;;;3.60;;
35394;SDS011;21500;45.308;9.488;2023-05-02T23:05:45;3.97;;;3.55;;
35394;SDS011;21500;45.308;9.488;2023-05-02T23:08:10;4.55;;;3.50;;
35394;SDS011;21500;45.308;9.488;2023-05-02T23:10:36;3.53;;;3.22;;
35394;SDS011;21500;45.308;9.488;2023-05-02T23:13:02;4.28;;;3.92;;
35394;SDS011;21500;45.308;9.488;2023-05-02T23:15:28;3.78;;;3.45;;
35394;SDS011;21500;45.308;9.488;2023-05-02T23:17:54;4.32;;;3.92;;
35394;SDS011;21500;45.308;9.488;2023-05-02T23:20:20;5.15;;;3.80;;
35394;SDS011;21500;45.308;9.488;2023-05-02T23:22:47;4.50;;;4.10;;
35394;SDS011;21500;45.308;9.488;2023-05-02T23:25:15;7.35;;;4.30;;
35394;SDS011;21500;45.308;9.488;2023-05-02T23:27:42;4.60;;;4.20;;
35394;SDS011;21500;45.308;9.488;2023-05-02T23:30:08;4.50;;;3.70;;
35394;SDS011;21500;45.308;9.488;2023-05-02T23:32:34;4.53;;;4.13;;
35394;SDS011;21500;45.308;9.488;2023-05-02T23:35:01;4.60;;;4.20;;
35394;SDS011;21500;45.308;9.488;2023-05-02T23:37:28;6.40;;;3.80;;
35394;SDS011;21500;45.308;9.488;2023-05-02T23:39:54;4.35;;;3.95;;
35394;SDS011;21500;45.308;9.488;2023-05-02T23:42:22;4.13;;;3.78;;
35394;SDS011;21500;45.308;9.488;2023-05-02T23:44:48;4.40;;;4.00;;
35394;SDS011;21500;45.308;9.488;2023-05-02T23:47:14;3.60;;;3.30;;
35394;SDS011;21500;45.308;9.488;2023-05-02T23:49:40;3.70;;;3.40;;
35394;SDS011;21500;45.308;9.488;2023-05-02T23:52:07;4.68;;;3.80;;
35394;SDS011;21500;45.308;9.488;2023-05-02T23:54:33;3.65;;;3.35;;
35394;SDS011;21500;45.308;9.488;2023-05-02T23:57:00;2.80;;;2.45;;
35394;SDS011;21500;45.308;9.488;2023-05-02T23:59:27;4.65;;;3.15;;
